sensor_id;sensor_type;location;lat;lon;timestamp;pressure;altitude;pressure_sealevel;temperature;humidity
52927;BME280;40783;49.710;8.842;2023-05-25T00:00:24;99661.81;;;10.41;76.08
52927;BME280;40783;49.710;8.842;2023-05-25T00:02:49;99668.28;;;10.38;75.92
52927;BME280;40783;49.710;8.842;2023-05-25T00:05:14;99673.22;;;10.33;76.02
52927;BME280;40783;49.710;8.842;2023-05-25T00:07:42;99663.50;;;10.32;76.30
52927;BME280;40783;49.710;8.842;2023-05-25T00:10:07;99660.13;;;10.30;76.68
52927;BME280;40783;49.710;8.842;2023-05-25T00:12:35;99659.59;;;10.26;77.05
52927;BME280;40783;49.710;8.842;2023-05-25T00:15:01;99650.88;;;10.24;76.91
52927;BME280;40783;49.710;8.842;2023-05-25T00:17:26;99652.25;;;10.18;77.00
52927;BME280;40783;49.710;8.842;2023-05-25T00:19:56;99656.25;;;9.94;78.63
52927;BME280;40783;49.710;8.842;2023-05-25T00:22:22;99659.63;;;9.97;77.88
52927;BME280;40783;49.710;8.842;2023-05-25T00:24:47;99660.19;;;9.71;79.90
52927;BME280;40783;49.710;8.842;2023-05-25T00:27:12;99664.53;;;9.72;78.55
52927;BME280;40783;49.710;8.842;2023-05-25T00:29:37;99663.13;;;9.68;81.12
52927;BME280;40783;49.710;8.842;2023-05-25T00:32:05;99668.75;;;9.64;79.94
52927;BME280;40783;49.710;8.842;2023-05-25T00:34:30;99661.59;;;9.75;79.08
52927;BME280;40783;49.710;8.842;2023-05-25T00:36:55;99659.88;;;9.54;79.21
52927;BME280;40783;49.710;8.842;2023-05-25T00:39:21;99673.03;;;9.26;81.56
52927;BME280;40783;49.710;8.842;2023-05-25T00:41:46;99665.25;;;9.03;83.64
52927;BME280;40783;49.710;8.842;2023-05-25T00:44:12;99675.50;;;8.98;84.16
52927;BME280;40783;49.710;8.842;2023-05-25T00:46:48;99671.97;;;8.98;84.00
52927;BME280;40783;49.710;8.842;2023-05-25T00:49:14;99670.00;;;8.90;85.49
52927;BME280;40783;49.710;8.842;2023-05-25T00:51:41;99673.75;;;8.87;86.62
52927;BME280;40783;49.710;8.842;2023-05-25T00:54:06;99680.50;;;8.82;85.68
52927;BME280;40783;49.710;8.842;2023-05-25T00:56:31;99678.28;;;8.97;85.14
52927;BME280;40783;49.710;8.842;2023-05-25T00:58:59;99676.31;;;8.89;86.20
52927;BME280;40783;49.710;8.842;2023-05-25T01:01:27;99676.94;;;8.71;86.67
52927;BME280;40783;49.710;8.842;2023-05-25T01:03:57;99671.13;;;8.56;91.53
52927;BME280;40783;49.710;8.842;2023-05-25T01:06:26;99680.19;;;8.54;91.50
52927;BME280;40783;49.710;8.842;2023-05-25T01:08:58;99678.06;;;8.48;92.56
52927;BME280;40783;49.710;8.842;2023-05-25T01:11:26;99673.38;;;8.61;89.91
52927;BME280;40783;49.710;8.842;2023-05-25T01:13:54;99676.22;;;8.69;89.33
52927;BME280;40783;49.710;8.842;2023-05-25T01:16:20;99679.97;;;8.88;88.30
52927;BME280;40783;49.710;8.842;2023-05-25T01:18:46;99672.22;;;8.54;90.80
52927;BME280;40783;49.710;8.842;2023-05-25T01:21:19;99683.72;;;8.54;92.53
52927;BME280;40783;49.710;8.842;2023-05-25T01:23:50;99681.69;;;8.46;92.26
52927;BME280;40783;49.710;8.842;2023-05-25T01:26:16;99679.50;;;8.52;93.97
52927;BME280;40783;49.710;8.842;2023-05-25T01:28:45;99685.53;;;8.54;92.45
52927;BME280;40783;49.710;8.842;2023-05-25T01:31:12;99688.38;;;8.20;98.40
52927;BME280;40783;49.710;8.842;2023-05-25T01:33:39;99686.75;;;8.07;97.51
52927;BME280;40783;49.710;8.842;2023-05-25T01:36:08;99687.16;;;8.24;95.26
52927;BME280;40783;49.710;8.842;2023-05-25T01:38:33;99687.09;;;8.56;92.19
52927;BME280;40783;49.710;8.842;2023-05-25T01:41:03;99684.38;;;8.46;92.92
52927;BME280;40783;49.710;8.842;2023-05-25T01:43:28;99685.78;;;8.51;93.10
52927;BME280;40783;49.710;8.842;2023-05-25T01:45:55;99691.66;;;8.44;93.62
52927;BME280;40783;49.710;8.842;2023-05-25T01:48:29;99682.75;;;8.34;94.03
52927;BME280;40783;49.710;8.842;2023-05-25T01:51:05;99689.63;;;8.58;91.86
52927;BME280;40783;49.710;8.842;2023-05-25T01:53:36;99688.19;;;8.11;96.07
52927;BME280;40783;49.710;8.842;2023-05-25T01:56:09;99694.94;;;8.15;95.54
52927;BME280;40783;49.710;8.842;2023-05-25T01:58:38;99696.13;;;8.23;94.69
52927;BME280;40783;49.710;8.842;2023-05-25T02:01:03;99694.19;;;8.25;95.69
52927;BME280;40783;49.710;8.842;2023-05-25T02:03:29;99686.78;;;8.50;92.04
52927;BME280;40783;49.710;8.842;2023-05-25T02:05:55;99688.91;;;8.13;94.42
52927;BME280;40783;49.710;8.842;2023-05-25T02:08:22;99687.41;;;8.21;95.04
52927;BME280;40783;49.710;8.842;2023-05-25T02:10:48;99687.69;;;8.17;93.88
52927;BME280;40783;49.710;8.842;2023-05-25T02:13:13;99682.47;;;7.95;95.66
52927;BME280;40783;49.710;8.842;2023-05-25T02:15:38;99688.97;;;8.02;95.43
52927;BME280;40783;49.710;8.842;2023-05-25T02:18:03;99685.50;;;7.90;95.76
52927;BME280;40783;49.710;8.842;2023-05-25T02:20:29;99687.91;;;7.61;99.36
52927;BME280;40783;49.710;8.842;2023-05-25T02:22:55;99695.28;;;7.24;100.00
52927;BME280;40783;49.710;8.842;2023-05-25T02:25:20;99686.00;;;7.51;100.00
52927;BME280;40783;49.710;8.842;2023-05-25T02:27:47;99685.66;;;7.89;96.46
52927;BME280;40783;49.710;8.842;2023-05-25T02:30:15;99679.66;;;7.75;95.64
52927;BME280;40783;49.710;8.842;2023-05-25T02:32:40;99687.63;;;7.75;96.18
52927;BME280;40783;49.710;8.842;2023-05-25T02:35:05;99682.63;;;7.49;97.47
52927;BME280;40783;49.710;8.842;2023-05-25T02:37:31;99675.09;;;7.54;97.39
52927;BME280;40783;49.710;8.842;2023-05-25T02:39:58;99674.94;;;7.35;97.74
52927;BME280;40783;49.710;8.842;2023-05-25T02:42:26;99681.50;;;7.19;99.91
52927;BME280;40783;49.710;8.842;2023-05-25T02:44:51;99677.16;;;7.07;100.00
52927;BME280;40783;49.710;8.842;2023-05-25T02:47:17;99678.56;;;7.34;99.19
52927;BME280;40783;49.710;8.842;2023-05-25T02:49:45;99683.66;;;7.37;98.85
52927;BME280;40783;49.710;8.842;2023-05-25T02:52:13;99683.56;;;7.60;96.76
52927;BME280;40783;49.710;8.842;2023-05-25T02:54:38;99681.44;;;7.42;98.52
52927;BME280;40783;49.710;8.842;2023-05-25T02:57:08;99675.94;;;7.22;98.49
52927;BME280;40783;49.710;8.842;2023-05-25T02:59:34;99681.25;;;7.22;98.26
52927;BME280;40783;49.710;8.842;2023-05-25T03:02:03;99678.84;;;6.96;100.00
52927;BME280;40783;49.710;8.842;2023-05-25T03:04:31;99684.78;;;6.55;100.00
52927;BME280;40783;49.710;8.842;2023-05-25T03:07:00;99686.34;;;6.57;100.00
52927;BME280;40783;49.710;8.842;2023-05-25T03:09:27;99687.09;;;6.71;100.00
52927;BME280;40783;49.710;8.842;2023-05-25T03:11:53;99688.97;;;6.46;100.00
52927;BME280;40783;49.710;8.842;2023-05-25T03:14:20;99688.28;;;6.78;100.00
52927;BME280;40783;49.710;8.842;2023-05-25T03:16:45;99690.09;;;6.89;100.00
52927;BME280;40783;49.710;8.842;2023-05-25T03:19:11;99697.72;;;6.71;100.00
52927;BME280;40783;49.710;8.842;2023-05-25T03:21:36;99702.28;;;6.57;100.00
52927;BME280;40783;49.710;8.842;2023-05-25T03:24:02;99703.03;;;6.71;100.00
52927;BME280;40783;49.710;8.842;2023-05-25T03:26:27;99694.69;;;6.75;100.00
52927;BME280;40783;49.710;8.842;2023-05-25T03:28:52;99696.13;;;6.79;100.00
52927;BME280;40783;49.710;8.842;2023-05-25T03:31:18;99694.28;;;6.46;100.00
52927;BME280;40783;49.710;8.842;2023-05-25T03:33:43;99695.72;;;6.27;100.00
52927;BME280;40783;49.710;8.842;2023-05-25T03:36:08;99703.97;;;6.35;100.00
52927;BME280;40783;49.710;8.842;2023-05-25T03:38:41;99697.78;;;6.35;100.00
52927;BME280;40783;49.710;8.842;2023-05-25T03:41:06;99693.34;;;6.58;100.00
52927;BME280;40783;49.710;8.842;2023-05-25T03:43:31;99692.63;;;7.02;100.00
52927;BME280;40783;49.710;8.842;2023-05-25T03:45:56;99702.59;;;6.30;100.00
52927;BME280;40783;49.710;8.842;2023-05-25T03:48:24;99708.50;;;6.22;100.00
52927;BME280;40783;49.710;8.842;2023-05-25T03:50:49;99709.88;;;6.39;100.00
52927;BME280;40783;49.710;8.842;2023-05-25T03:53:15;99697.94;;;6.67;100.00
52927;BME280;40783;49.710;8.842;2023-05-25T03:55:40;99706.19;;;6.76;100.00
52927;BME280;40783;49.710;8.842;2023-05-25T03:58:08;99704.44;;;6.52;100.00
52927;BME280;40783;49.710;8.842;2023-05-25T04:00:34;99703.50;;;6.64;100.00
52927;BME280;40783;49.710;8.842;2023-05-25T04:03:02;99707.47;;;6.70;100.00
52927;BME280;40783;49.710;8.842;2023-05-25T04:05:27;99705.81;;;6.80;100.00
52927;BME280;40783;49.710;8.842;2023-05-25T04:07:52;99705.69;;;6.82;100.00
52927;BME280;40783;49.710;8.842;2023-05-25T04:10:17;99706.16;;;7.21;100.00
52927;BME280;40783;49.710;8.842;2023-05-25T04:12:42;99711.47;;;7.21;100.00
52927;BME280;40783;49.710;8.842;2023-05-25T04:15:08;99716.50;;;7.47;100.00
52927;BME280;40783;49.710;8.842;2023-05-25T04:17:34;99719.38;;;7.67;99.29
52927;BME280;40783;49.710;8.842;2023-05-25T04:19:59;99722.28;;;7.64;99.37
52927;BME280;40783;49.710;8.842;2023-05-25T04:22:25;99726.84;;;7.73;98.89
52927;BME280;40783;49.710;8.842;2023-05-25T04:24:50;99733.88;;;7.63;99.06
52927;BME280;40783;49.710;8.842;2023-05-25T04:27:15;99736.34;;;7.43;100.00
52927;BME280;40783;49.710;8.842;2023-05-25T04:29:43;99737.44;;;7.40;100.00
52927;BME280;40783;49.710;8.842;2023-05-25T04:32:08;99732.66;;;7.11;100.00
52927;BME280;40783;49.710;8.842;2023-05-25T04:34:33;99736.13;;;7.12;100.00
52927;BME280;40783;49.710;8.842;2023-05-25T04:36:59;99743.50;;;7.20;100.00
52927;BME280;40783;49.710;8.842;2023-05-25T04:39:29;99742.66;;;7.08;100.00
52927;BME280;40783;49.710;8.842;2023-05-25T04:41:54;99744.13;;;7.01;100.00
52927;BME280;40783;49.710;8.842;2023-05-25T04:44:19;99744.97;;;7.12;100.00
52927;BME280;40783;49.710;8.842;2023-05-25T04:46:44;99741.59;;;7.10;100.00
52927;BME280;40783;49.710;8.842;2023-05-25T04:49:12;99749.56;;;6.99;100.00
52927;BME280;40783;49.710;8.842;2023-05-25T04:51:37;99749.19;;;7.15;100.00
52927;BME280;40783;49.710;8.842;2023-05-25T04:54:02;99758.63;;;7.08;100.00
52927;BME280;40783;49.710;8.842;2023-05-25T04:56:28;99763.34;;;7.27;100.00
52927;BME280;40783;49.710;8.842;2023-05-25T04:58:53;99768.31;;;7.20;100.00
52927;BME280;40783;49.710;8.842;2023-05-25T05:01:18;99768.91;;;7.35;100.00
52927;BME280;40783;49.710;8.842;2023-05-25T05:03:47;99766.34;;;7.45;100.00
52927;BME280;40783;49.710;8.842;2023-05-25T05:06:13;99758.84;;;7.50;100.00
52927;BME280;40783;49.710;8.842;2023-05-25T05:08:38;99761.47;;;7.62;100.00
52927;BME280;40783;49.710;8.842;2023-05-25T05:11:03;99762.44;;;7.61;100.00
52927;BME280;40783;49.710;8.842;2023-05-25T05:13:28;99761.72;;;7.58;100.00
52927;BME280;40783;49.710;8.842;2023-05-25T05:15:53;99757.13;;;7.49;100.00
52927;BME280;40783;49.710;8.842;2023-05-25T05:18:19;99766.31;;;7.68;100.00
52927;BME280;40783;49.710;8.842;2023-05-25T05:20:45;99766.53;;;7.76;100.00
52927;BME280;40783;49.710;8.842;2023-05-25T05:23:10;99767.75;;;7.72;100.00
52927;BME280;40783;49.710;8.842;2023-05-25T05:25:35;99767.97;;;7.92;100.00
52927;BME280;40783;49.710;8.842;2023-05-25T05:28:02;99767.72;;;7.95;100.00
52927;BME280;40783;49.710;8.842;2023-05-25T05:30:27;99758.38;;;8.22;100.00
52927;BME280;40783;49.710;8.842;2023-05-25T05:32:52;99759.72;;;8.49;100.00
52927;BME280;40783;49.710;8.842;2023-05-25T05:35:20;99753.84;;;8.97;100.00
52927;BME280;40783;49.710;8.842;2023-05-25T05:37:45;99762.97;;;9.35;99.16
52927;BME280;40783;49.710;8.842;2023-05-25T05:40:12;99761.38;;;9.74;97.85
52927;BME280;40783;49.710;8.842;2023-05-25T05:42:38;99757.88;;;9.83;98.68
52927;BME280;40783;49.710;8.842;2023-05-25T05:45:08;99764.66;;;10.56;95.44
52927;BME280;40783;49.710;8.842;2023-05-25T05:47:34;99757.97;;;10.90;92.56
52927;BME280;40783;49.710;8.842;2023-05-25T05:49:59;99759.91;;;11.07;91.17
52927;BME280;40783;49.710;8.842;2023-05-25T05:52:27;99761.97;;;11.13;91.11
52927;BME280;40783;49.710;8.842;2023-05-25T05:54:52;99778.19;;;11.50;90.49
52927;BME280;40783;49.710;8.842;2023-05-25T05:57:17;99770.31;;;11.66;87.06
52927;BME280;40783;49.710;8.842;2023-05-25T05:59:42;99772.00;;;11.67;84.22
52927;BME280;40783;49.710;8.842;2023-05-25T06:02:10;99777.25;;;11.87;85.75
52927;BME280;40783;49.710;8.842;2023-05-25T06:04:38;99791.16;;;12.00;85.05
52927;BME280;40783;49.710;8.842;2023-05-25T06:07:05;99788.25;;;11.84;86.05
52927;BME280;40783;49.710;8.842;2023-05-25T06:09:33;99792.94;;;11.82;85.86
52927;BME280;40783;49.710;8.842;2023-05-25T06:12:01;99779.91;;;12.15;86.89
52927;BME280;40783;49.710;8.842;2023-05-25T06:14:28;99783.88;;;12.47;85.97
52927;BME280;40783;49.710;8.842;2023-05-25T06:16:56;99782.31;;;12.63;82.68
52927;BME280;40783;49.710;8.842;2023-05-25T06:19:21;99785.25;;;12.51;80.44
52927;BME280;40783;49.710;8.842;2023-05-25T06:21:49;99794.28;;;12.50;80.38
52927;BME280;40783;49.710;8.842;2023-05-25T06:24:14;99784.78;;;12.38;80.88
52927;BME280;40783;49.710;8.842;2023-05-25T06:26:41;99788.78;;;12.34;81.00
52927;BME280;40783;49.710;8.842;2023-05-25T06:29:11;99791.53;;;12.86;79.64
52927;BME280;40783;49.710;8.842;2023-05-25T06:31:36;99792.75;;;13.18;78.91
52927;BME280;40783;49.710;8.842;2023-05-25T06:34:04;99786.41;;;13.28;78.26
52927;BME280;40783;49.710;8.842;2023-05-25T06:36:29;99789.91;;;13.55;74.94
52927;BME280;40783;49.710;8.842;2023-05-25T06:38:54;99793.28;;;13.57;74.06
52927;BME280;40783;49.710;8.842;2023-05-25T06:41:22;99787.56;;;13.52;75.13
52927;BME280;40783;49.710;8.842;2023-05-25T06:43:47;99794.09;;;13.49;74.51
52927;BME280;40783;49.710;8.842;2023-05-25T06:46:14;99796.03;;;13.73;73.13
52927;BME280;40783;49.710;8.842;2023-05-25T06:48:42;99798.44;;;14.01;71.61
52927;BME280;40783;49.710;8.842;2023-05-25T06:51:10;99798.72;;;13.82;71.33
52927;BME280;40783;49.710;8.842;2023-05-25T06:53:36;99798.19;;;14.29;71.69
52927;BME280;40783;49.710;8.842;2023-05-25T06:56:03;99794.97;;;14.25;70.32
52927;BME280;40783;49.710;8.842;2023-05-25T06:58:28;99784.03;;;14.44;71.37
52927;BME280;40783;49.710;8.842;2023-05-25T07:00:56;99786.72;;;14.93;67.38
52927;BME280;40783;49.710;8.842;2023-05-25T07:03:21;99788.75;;;14.91;65.00
52927;BME280;40783;49.710;8.842;2023-05-25T07:05:46;99784.34;;;15.15;67.26
52927;BME280;40783;49.710;8.842;2023-05-25T07:08:11;99784.63;;;15.28;66.45
52927;BME280;40783;49.710;8.842;2023-05-25T07:10:37;99794.34;;;15.38;65.44
52927;BME280;40783;49.710;8.842;2023-05-25T07:13:02;99789.34;;;15.35;65.00
52927;BME280;40783;49.710;8.842;2023-05-25T07:15:27;99787.72;;;15.57;66.50
52927;BME280;40783;49.710;8.842;2023-05-25T07:17:55;99782.88;;;15.44;66.36
52927;BME280;40783;49.710;8.842;2023-05-25T07:20:21;99779.50;;;15.42;66.49
52927;BME280;40783;49.710;8.842;2023-05-25T07:22:49;99777.81;;;15.41;66.53
52927;BME280;40783;49.710;8.842;2023-05-25T07:25:17;99780.50;;;15.49;66.28
52927;BME280;40783;49.710;8.842;2023-05-25T07:27:42;99785.56;;;15.44;67.30
52927;BME280;40783;49.710;8.842;2023-05-25T07:30:12;99781.34;;;15.50;66.85
52927;BME280;40783;49.710;8.842;2023-05-25T07:32:37;99783.22;;;15.81;67.02
52927;BME280;40783;49.710;8.842;2023-05-25T07:35:05;99789.72;;;15.95;65.68
52927;BME280;40783;49.710;8.842;2023-05-25T07:37:33;99787.31;;;15.68;65.34
52927;BME280;40783;49.710;8.842;2023-05-25T07:39:59;99788.91;;;15.94;65.21
52927;BME280;40783;49.710;8.842;2023-05-25T07:42:26;99780.72;;;16.34;63.61
52927;BME280;40783;49.710;8.842;2023-05-25T07:44:57;99779.13;;;16.63;63.28
52927;BME280;40783;49.710;8.842;2023-05-25T07:47:23;99781.78;;;16.25;64.14
52927;BME280;40783;49.710;8.842;2023-05-25T07:49:48;99784.06;;;15.81;64.40
52927;BME280;40783;49.710;8.842;2023-05-25T07:52:13;99790.06;;;15.04;67.77
52927;BME280;40783;49.710;8.842;2023-05-25T07:54:38;99788.25;;;14.54;69.80
52927;BME280;40783;49.710;8.842;2023-05-25T07:57:04;99796.81;;;14.33;70.82
52927;BME280;40783;49.710;8.842;2023-05-25T07:59:30;99797.13;;;14.14;72.30
52927;BME280;40783;49.710;8.842;2023-05-25T08:01:58;99791.09;;;14.20;74.03
52927;BME280;40783;49.710;8.842;2023-05-25T08:04:23;99797.84;;;14.24;74.88
52927;BME280;40783;49.710;8.842;2023-05-25T08:06:48;99801.84;;;14.36;75.29
52927;BME280;40783;49.710;8.842;2023-05-25T08:09:14;99794.47;;;14.63;76.05
52927;BME280;40783;49.710;8.842;2023-05-25T08:11:39;99798.84;;;14.48;72.69
52927;BME280;40783;49.710;8.842;2023-05-25T08:14:04;99797.16;;;14.38;72.48
52927;BME280;40783;49.710;8.842;2023-05-25T08:16:29;99794.47;;;14.38;74.92
52927;BME280;40783;49.710;8.842;2023-05-25T08:18:54;99792.78;;;14.21;74.02
52927;BME280;40783;49.710;8.842;2023-05-25T08:21:20;99787.06;;;14.32;75.47
52927;BME280;40783;49.710;8.842;2023-05-25T08:23:47;99788.06;;;14.39;74.26
52927;BME280;40783;49.710;8.842;2023-05-25T08:26:17;99786.03;;;14.33;73.88
52927;BME280;40783;49.710;8.842;2023-05-25T08:28:42;99798.16;;;14.37;73.95
52927;BME280;40783;49.710;8.842;2023-05-25T08:31:07;99787.59;;;14.44;74.85
52927;BME280;40783;49.710;8.842;2023-05-25T08:33:32;99791.44;;;14.42;74.12
52927;BME280;40783;49.710;8.842;2023-05-25T08:35:57;99794.47;;;14.55;74.08
52927;BME280;40783;49.710;8.842;2023-05-25T08:38:23;99802.56;;;14.63;73.24
52927;BME280;40783;49.710;8.842;2023-05-25T08:40:52;99793.97;;;14.68;74.86
52927;BME280;40783;49.710;8.842;2023-05-25T08:43:24;99799.53;;;14.50;74.27
52927;BME280;40783;49.710;8.842;2023-05-25T08:45:49;99800.84;;;14.46;76.33
52927;BME280;40783;49.710;8.842;2023-05-25T08:48:15;99801.19;;;14.43;75.11
52927;BME280;40783;49.710;8.842;2023-05-25T08:50:47;99798.03;;;14.47;74.49
52927;BME280;40783;49.710;8.842;2023-05-25T08:53:15;99799.53;;;14.66;76.39
52927;BME280;40783;49.710;8.842;2023-05-25T08:55:41;99794.66;;;14.78;76.22
52927;BME280;40783;49.710;8.842;2023-05-25T08:58:16;99787.25;;;14.80;74.18
52927;BME280;40783;49.710;8.842;2023-05-25T09:00:43;99790.09;;;14.95;74.15
52927;BME280;40783;49.710;8.842;2023-05-25T09:03:14;99792.78;;;15.04;74.24
52927;BME280;40783;49.710;8.842;2023-05-25T09:05:41;99795.97;;;15.07;73.16
52927;BME280;40783;49.710;8.842;2023-05-25T09:08:07;99792.09;;;15.10;73.32
52927;BME280;40783;49.710;8.842;2023-05-25T09:10:35;99793.78;;;15.03;73.37
52927;BME280;40783;49.710;8.842;2023-05-25T09:13:01;99793.09;;;15.01;72.90
52927;BME280;40783;49.710;8.842;2023-05-25T09:15:26;99797.81;;;15.07;72.32
52927;BME280;40783;49.710;8.842;2023-05-25T09:17:54;99806.03;;;15.13;73.47
52927;BME280;40783;49.710;8.842;2023-05-25T09:20:19;99798.28;;;15.19;72.86
52927;BME280;40783;49.710;8.842;2023-05-25T09:22:48;99808.22;;;15.26;72.92
52927;BME280;40783;49.710;8.842;2023-05-25T09:25:17;99801.13;;;15.34;71.20
52927;BME280;40783;49.710;8.842;2023-05-25T09:27:45;99803.50;;;15.20;70.14
52927;BME280;40783;49.710;8.842;2023-05-25T09:30:10;99804.00;;;15.24;72.95
52927;BME280;40783;49.710;8.842;2023-05-25T09:32:36;99802.16;;;15.24;70.27
52927;BME280;40783;49.710;8.842;2023-05-25T09:35:11;99803.16;;;15.32;69.68
52927;BME280;40783;49.710;8.842;2023-05-25T09:37:36;99801.75;;;15.44;70.01
52927;BME280;40783;49.710;8.842;2023-05-25T09:40:02;99800.31;;;15.65;70.57
52927;BME280;40783;49.710;8.842;2023-05-25T09:42:27;99795.56;;;15.75;68.42
52927;BME280;40783;49.710;8.842;2023-05-25T09:44:56;99788.13;;;15.77;69.44
52927;BME280;40783;49.710;8.842;2023-05-25T09:47:22;99797.94;;;15.70;69.41
52927;BME280;40783;49.710;8.842;2023-05-25T09:49:47;99806.69;;;15.72;68.01
52927;BME280;40783;49.710;8.842;2023-05-25T09:52:14;99796.25;;;15.69;67.79
52927;BME280;40783;49.710;8.842;2023-05-25T09:54:46;99799.22;;;15.82;69.63
52927;BME280;40783;49.710;8.842;2023-05-25T09:57:12;99810.25;;;16.04;68.48
52927;BME280;40783;49.710;8.842;2023-05-25T09:59:38;99812.19;;;16.19;68.86
52927;BME280;40783;49.710;8.842;2023-05-25T10:02:03;99813.25;;;16.09;66.66
52927;BME280;40783;49.710;8.842;2023-05-25T10:04:28;99806.44;;;16.22;65.93
52927;BME280;40783;49.710;8.842;2023-05-25T10:06:56;99805.47;;;16.14;64.75
52927;BME280;40783;49.710;8.842;2023-05-25T10:09:21;99805.78;;;16.20;66.54
52927;BME280;40783;49.710;8.842;2023-05-25T10:11:46;99809.03;;;16.15;64.95
52927;BME280;40783;49.710;8.842;2023-05-25T10:14:15;99814.00;;;16.26;64.87
52927;BME280;40783;49.710;8.842;2023-05-25T10:16:41;99811.38;;;16.41;65.10
52927;BME280;40783;49.710;8.842;2023-05-25T10:19:13;99815.66;;;16.51;64.11
52927;BME280;40783;49.710;8.842;2023-05-25T10:21:42;99818.38;;;16.51;61.69
52927;BME280;40783;49.710;8.842;2023-05-25T10:24:17;99808.88;;;16.55;62.47
52927;BME280;40783;49.710;8.842;2023-05-25T10:26:49;99809.81;;;16.47;60.48
52927;BME280;40783;49.710;8.842;2023-05-25T10:29:15;99813.53;;;16.46;63.36
52927;BME280;40783;49.710;8.842;2023-05-25T10:31:44;99820.28;;;16.65;60.55
52927;BME280;40783;49.710;8.842;2023-05-25T10:34:09;99809.69;;;16.64;59.83
52927;BME280;40783;49.710;8.842;2023-05-25T10:36:38;99808.59;;;16.50;59.44
52927;BME280;40783;49.710;8.842;2023-05-25T10:39:04;99809.19;;;16.60;59.83
52927;BME280;40783;49.710;8.842;2023-05-25T10:41:31;99798.59;;;16.73;59.97
52927;BME280;40783;49.710;8.842;2023-05-25T10:43:56;99808.31;;;16.83;59.87
52927;BME280;40783;49.710;8.842;2023-05-25T10:46:21;99798.97;;;16.70;60.51
52927;BME280;40783;49.710;8.842;2023-05-25T10:48:47;99792.13;;;16.83;60.78
52927;BME280;40783;49.710;8.842;2023-05-25T10:51:13;99797.16;;;16.86;60.35
52927;BME280;40783;49.710;8.842;2023-05-25T10:53:45;99801.81;;;16.92;60.11
52927;BME280;40783;49.710;8.842;2023-05-25T10:56:11;99797.72;;;16.96;58.20
52927;BME280;40783;49.710;8.842;2023-05-25T10:58:40;99804.81;;;16.97;58.44
52927;BME280;40783;49.710;8.842;2023-05-25T11:01:06;99801.47;;;16.95;56.37
52927;BME280;40783;49.710;8.842;2023-05-25T11:06:17;99799.78;;;16.94;57.02
52927;BME280;40783;49.710;8.842;2023-05-25T11:11:16;99795.94;;;16.88;56.94
52927;BME280;40783;49.710;8.842;2023-05-25T11:13:48;99801.34;;;16.88;58.47
52927;BME280;40783;49.710;8.842;2023-05-25T11:21:20;99797.56;;;17.13;61.65
52927;BME280;40783;49.710;8.842;2023-05-25T11:23:59;99797.41;;;17.29;56.08
52927;BME280;40783;49.710;8.842;2023-05-25T11:26:29;99785.56;;;17.30;56.03
52927;BME280;40783;49.710;8.842;2023-05-25T11:28:55;99790.13;;;17.45;56.66
52927;BME280;40783;49.710;8.842;2023-05-25T11:31:27;99778.84;;;17.26;56.34
52927;BME280;40783;49.710;8.842;2023-05-25T11:33:56;99774.66;;;17.39;56.84
52927;BME280;40783;49.710;8.842;2023-05-25T11:36:22;99771.47;;;17.50;56.64
52927;BME280;40783;49.710;8.842;2023-05-25T11:38:51;99774.88;;;17.74;57.32
52927;BME280;40783;49.710;8.842;2023-05-25T11:41:21;99772.56;;;17.71;54.20
52927;BME280;40783;49.710;8.842;2023-05-25T11:43:50;99765.19;;;17.64;55.08
52927;BME280;40783;49.710;8.842;2023-05-25T11:46:18;99758.88;;;17.57;54.40
52927;BME280;40783;49.710;8.842;2023-05-25T11:48:50;99758.22;;;17.70;54.87
52927;BME280;40783;49.710;8.842;2023-05-25T11:51:16;99759.03;;;17.71;54.72
52927;BME280;40783;49.710;8.842;2023-05-25T11:53:42;99765.34;;;17.78;54.78
52927;BME280;40783;49.710;8.842;2023-05-25T11:56:08;99762.28;;;17.81;54.25
52927;BME280;40783;49.710;8.842;2023-05-25T11:58:36;99756.72;;;18.04;53.89
52927;BME280;40783;49.710;8.842;2023-05-25T12:01:11;99767.00;;;17.94;53.15
52927;BME280;40783;49.710;8.842;2023-05-25T12:03:37;99765.31;;;17.93;54.03
52927;BME280;40783;49.710;8.842;2023-05-25T12:06:02;99753.28;;;17.95;53.33
52927;BME280;40783;49.710;8.842;2023-05-25T12:08:31;99744.22;;;18.03;53.75
52927;BME280;40783;49.710;8.842;2023-05-25T12:10:56;99746.81;;;18.12;54.04
52927;BME280;40783;49.710;8.842;2023-05-25T12:13:23;99746.88;;;18.18;53.42
52927;BME280;40783;49.710;8.842;2023-05-25T12:15:50;99748.81;;;18.24;53.60
52927;BME280;40783;49.710;8.842;2023-05-25T12:18:17;99751.38;;;18.33;54.00
52927;BME280;40783;49.710;8.842;2023-05-25T12:20:43;99751.63;;;18.38;53.19
52927;BME280;40783;49.710;8.842;2023-05-25T12:23:10;99749.88;;;18.30;53.48
52927;BME280;40783;49.710;8.842;2023-05-25T12:25:36;99745.50;;;18.29;55.70
52927;BME280;40783;49.710;8.842;2023-05-25T12:28:13;99747.28;;;18.44;53.83
52927;BME280;40783;49.710;8.842;2023-05-25T12:30:39;99744.09;;;18.33;54.08
52927;BME280;40783;49.710;8.842;2023-05-25T12:33:05;99737.63;;;18.34;53.05
52927;BME280;40783;49.710;8.842;2023-05-25T12:35:42;99734.75;;;18.36;53.38
52927;BME280;40783;49.710;8.842;2023-05-25T12:38:08;99721.97;;;18.30;52.90
52927;BME280;40783;49.710;8.842;2023-05-25T12:40:33;99724.69;;;18.51;54.55
52927;BME280;40783;49.710;8.842;2023-05-25T12:42:59;99726.34;;;18.52;53.74
52927;BME280;40783;49.710;8.842;2023-05-25T12:45:24;99708.81;;;18.48;54.12
52927;BME280;40783;49.710;8.842;2023-05-25T12:47:49;99720.50;;;18.56;52.66
52927;BME280;40783;49.710;8.842;2023-05-25T12:50:15;99722.69;;;18.67;52.68
52927;BME280;40783;49.710;8.842;2023-05-25T12:52:43;99718.53;;;18.71;53.23
52927;BME280;40783;49.710;8.842;2023-05-25T12:55:26;99724.22;;;18.76;53.24
52927;BME280;40783;49.710;8.842;2023-05-25T12:58:01;99717.75;;;18.77;53.66
52927;BME280;40783;49.710;8.842;2023-05-25T13:00:31;99712.34;;;18.77;54.51
52927;BME280;40783;49.710;8.842;2023-05-25T13:02:56;99718.16;;;18.74;53.18
52927;BME280;40783;49.710;8.842;2023-05-25T13:05:23;99720.47;;;18.77;52.22
52927;BME280;40783;49.710;8.842;2023-05-25T13:07:48;99718.63;;;18.78;52.74
52927;BME280;40783;49.710;8.842;2023-05-25T13:10:14;99711.16;;;18.87;55.33